KGE weather

Kaghau Airport
Kagau Island, Choiseul, Solomon Islands

Public forecast

Using degrees Celsius for public forecast. Weather courtesy of forecast.io.

Closest aviation weather report (METAR) to Kaghau Airport

Report is more than 6 hours old.

Closest report is Munda Airport, 62.9 nm (116.4 km) SSW. Retrieved 2020/05/03 22:00 UTC (2 months ago):

AGGM 032200Z 00000KT 9999 FEW017 BKN300 28/25 Q1011

Closest aviation forecast (TAF) to Kaghau Airport

Forecast is more than 12 hours old.

Closest forecast is Munda Airport, 62.9 nm (116.4 km) SSW. Retrieved 2020-04-17 00:20 UTC (3 months ago):

TAF AGGM 162320Z 1700/1724 05010KT 9999 SHRA FEW18 BKN030 PROB40 INTER 1700/1709 5000 TSSH SCT016 FEW017CB BKN028 Q 1013 1011 1010 1012